sensor_id;sensor_type;location;lat;lon;timestamp;P1;durP1;ratioP1;P2;durP2;ratioP2
42364;SDS011;28498;54.400;18.566;2022-08-05T00:01:29;8.55;;;7.10;;
42364;SDS011;28498;54.400;18.566;2022-08-05T00:06:41;7.60;;;6.80;;
42364;SDS011;28498;54.400;18.566;2022-08-05T00:09:08;10.52;;;7.03;;
42364;SDS011;28498;54.400;18.566;2022-08-05T00:11:38;9.40;;;6.95;;
42364;SDS011;28498;54.400;18.566;2022-08-05T00:14:13;12.35;;;7.07;;
42364;SDS011;28498;54.400;18.566;2022-08-05T00:16:42;8.23;;;6.55;;
42364;SDS011;28498;54.400;18.566;2022-08-05T00:19:19;10.18;;;6.97;;
42364;SDS011;28498;54.400;18.566;2022-08-05T00:21:58;10.02;;;6.90;;
42364;SDS011;28498;54.400;18.566;2022-08-05T00:24:25;9.85;;;6.38;;
42364;SDS011;28498;54.400;18.566;2022-08-05T00:26:56;9.00;;;6.45;;
42364;SDS011;28498;54.400;18.566;2022-08-05T00:29:25;8.05;;;6.28;;
42364;SDS011;28498;54.400;18.566;2022-08-05T00:31:58;9.88;;;6.03;;
42364;SDS011;28498;54.400;18.566;2022-08-05T00:34:40;9.05;;;6.07;;
42364;SDS011;28498;54.400;18.566;2022-08-05T00:37:29;8.32;;;6.43;;
42364;SDS011;28498;54.400;18.566;2022-08-05T00:40:16;9.60;;;6.00;;
42364;SDS011;28498;54.400;18.566;2022-08-05T00:43:00;7.13;;;6.03;;
42364;SDS011;28498;54.400;18.566;2022-08-05T00:45:32;11.35;;;6.28;;
42364;SDS011;28498;54.400;18.566;2022-08-05T00:48:12;9.63;;;6.22;;
42364;SDS011;28498;54.400;18.566;2022-08-05T00:50:41;9.50;;;6.50;;
42364;SDS011;28498;54.400;18.566;2022-08-05T00:53:12;9.55;;;6.25;;
42364;SDS011;28498;54.400;18.566;2022-08-05T00:56:03;9.95;;;7.25;;
42364;SDS011;28498;54.400;18.566;2022-08-05T00:58:33;7.60;;;6.47;;
42364;SDS011;28498;54.400;18.566;2022-08-05T01:01:02;8.27;;;6.90;;
42364;SDS011;28498;54.400;18.566;2022-08-05T01:03:34;9.63;;;7.18;;
42364;SDS011;28498;54.400;18.566;2022-08-05T01:06:01;13.82;;;6.82;;
42364;SDS011;28498;54.400;18.566;2022-08-05T01:08:30;9.32;;;7.05;;
42364;SDS011;28498;54.400;18.566;2022-08-05T01:11:14;9.15;;;7.00;;
42364;SDS011;28498;54.400;18.566;2022-08-05T01:16:37;10.85;;;8.02;;
42364;SDS011;28498;54.400;18.566;2022-08-05T01:19:15;9.70;;;7.88;;
42364;SDS011;28498;54.400;18.566;2022-08-05T01:22:33;12.13;;;9.27;;
42364;SDS011;28498;54.400;18.566;2022-08-05T01:28:37;10.30;;;8.77;;
42364;SDS011;28498;54.400;18.566;2022-08-05T01:31:57;11.57;;;8.07;;
42364;SDS011;28498;54.400;18.566;2022-08-05T01:34:27;13.38;;;9.43;;
42364;SDS011;28498;54.400;18.566;2022-08-05T01:37:02;9.52;;;8.52;;
42364;SDS011;28498;54.400;18.566;2022-08-05T01:39:30;11.45;;;8.80;;
42364;SDS011;28498;54.400;18.566;2022-08-05T01:42:13;13.25;;;8.85;;
42364;SDS011;28498;54.400;18.566;2022-08-05T01:44:42;11.48;;;9.30;;
42364;SDS011;28498;54.400;18.566;2022-08-05T01:47:19;12.68;;;9.82;;
42364;SDS011;28498;54.400;18.566;2022-08-05T01:49:48;10.85;;;9.48;;
42364;SDS011;28498;54.400;18.566;2022-08-05T01:52:27;15.10;;;9.52;;
42364;SDS011;28498;54.400;18.566;2022-08-05T01:54:58;11.45;;;9.85;;
42364;SDS011;28498;54.400;18.566;2022-08-05T01:57:33;10.60;;;9.50;;
42364;SDS011;28498;54.400;18.566;2022-08-05T02:00:23;11.23;;;9.05;;
42364;SDS011;28498;54.400;18.566;2022-08-05T02:03:00;12.30;;;8.88;;
42364;SDS011;28498;54.400;18.566;2022-08-05T02:05:49;18.70;;;10.80;;
42364;SDS011;28498;54.400;18.566;2022-08-05T02:08:23;13.98;;;10.63;;
42364;SDS011;28498;54.400;18.566;2022-08-05T02:10:58;11.20;;;9.93;;
42364;SDS011;28498;54.400;18.566;2022-08-05T02:17:10;10.95;;;8.98;;
42364;SDS011;28498;54.400;18.566;2022-08-05T02:19:34;10.93;;;8.93;;
42364;SDS011;28498;54.400;18.566;2022-08-05T02:24:54;15.10;;;9.35;;
42364;SDS011;28498;54.400;18.566;2022-08-05T02:27:27;12.90;;;9.00;;
42364;SDS011;28498;54.400;18.566;2022-08-05T02:30:17;11.40;;;9.23;;
42364;SDS011;28498;54.400;18.566;2022-08-05T02:32:46;11.18;;;8.73;;
42364;SDS011;28498;54.400;18.566;2022-08-05T02:35:18;12.32;;;9.10;;
42364;SDS011;28498;54.400;18.566;2022-08-05T02:37:53;11.73;;;9.18;;
42364;SDS011;28498;54.400;18.566;2022-08-05T02:40:25;12.43;;;9.48;;
42364;SDS011;28498;54.400;18.566;2022-08-05T02:42:53;10.27;;;9.18;;
42364;SDS011;28498;54.400;18.566;2022-08-05T02:45:21;10.38;;;9.25;;
42364;SDS011;28498;54.400;18.566;2022-08-05T02:47:51;10.98;;;9.88;;
42364;SDS011;28498;54.400;18.566;2022-08-05T02:50:38;9.60;;;8.52;;
42364;SDS011;28498;54.400;18.566;2022-08-05T02:53:10;12.75;;;9.13;;
42364;SDS011;28498;54.400;18.566;2022-08-05T02:55:45;11.60;;;9.38;;
42364;SDS011;28498;54.400;18.566;2022-08-05T02:58:24;10.90;;;8.75;;
42364;SDS011;28498;54.400;18.566;2022-08-05T03:00:55;10.57;;;9.27;;
42364;SDS011;28498;54.400;18.566;2022-08-05T03:03:25;18.80;;;10.15;;
42364;SDS011;28498;54.400;18.566;2022-08-05T03:05:59;10.52;;;9.27;;
42364;SDS011;28498;54.400;18.566;2022-08-05T03:08:47;11.93;;;8.45;;
42364;SDS011;28498;54.400;18.566;2022-08-05T03:11:24;12.32;;;8.95;;
42364;SDS011;28498;54.400;18.566;2022-08-05T03:14:12;11.32;;;9.20;;
42364;SDS011;28498;54.400;18.566;2022-08-05T03:16:40;11.23;;;9.07;;
42364;SDS011;28498;54.400;18.566;2022-08-05T03:19:07;10.10;;;8.88;;
42364;SDS011;28498;54.400;18.566;2022-08-05T03:21:45;14.63;;;8.25;;
42364;SDS011;28498;54.400;18.566;2022-08-05T03:24:15;15.65;;;8.98;;
42364;SDS011;28498;54.400;18.566;2022-08-05T03:26:56;9.60;;;7.88;;
42364;SDS011;28498;54.400;18.566;2022-08-05T03:29:24;9.48;;;8.10;;
42364;SDS011;28498;54.400;18.566;2022-08-05T03:32:12;8.95;;;7.53;;
42364;SDS011;28498;54.400;18.566;2022-08-05T03:34:41;9.30;;;8.00;;
42364;SDS011;28498;54.400;18.566;2022-08-05T03:37:16;9.20;;;7.95;;
42364;SDS011;28498;54.400;18.566;2022-08-05T03:39:53;11.45;;;7.75;;
42364;SDS011;28498;54.400;18.566;2022-08-05T03:42:27;9.65;;;7.05;;
42364;SDS011;28498;54.400;18.566;2022-08-05T03:45:07;8.00;;;7.20;;
42364;SDS011;28498;54.400;18.566;2022-08-05T03:47:48;8.63;;;7.72;;
42364;SDS011;28498;54.400;18.566;2022-08-05T03:50:16;9.65;;;7.18;;
42364;SDS011;28498;54.400;18.566;2022-08-05T03:52:48;8.25;;;7.03;;
42364;SDS011;28498;54.400;18.566;2022-08-05T03:55:42;10.43;;;7.53;;
42364;SDS011;28498;54.400;18.566;2022-08-05T03:58:35;8.10;;;6.50;;
42364;SDS011;28498;54.400;18.566;2022-08-05T04:01:06;6.93;;;6.22;;
42364;SDS011;28498;54.400;18.566;2022-08-05T04:03:38;8.50;;;6.22;;
42364;SDS011;28498;54.400;18.566;2022-08-05T04:06:27;6.80;;;6.10;;
42364;SDS011;28498;54.400;18.566;2022-08-05T04:08:55;10.70;;;6.43;;
42364;SDS011;28498;54.400;18.566;2022-08-05T04:11:22;7.90;;;6.78;;
42364;SDS011;28498;54.400;18.566;2022-08-05T04:14:10;7.68;;;6.90;;
42364;SDS011;28498;54.400;18.566;2022-08-05T04:16:43;7.85;;;6.50;;
42364;SDS011;28498;54.400;18.566;2022-08-05T04:19:11;11.48;;;7.35;;
42364;SDS011;28498;54.400;18.566;2022-08-05T04:21:39;9.00;;;6.32;;
42364;SDS011;28498;54.400;18.566;2022-08-05T04:24:26;9.43;;;5.88;;
42364;SDS011;28498;54.400;18.566;2022-08-05T04:26:54;8.73;;;6.35;;
42364;SDS011;28498;54.400;18.566;2022-08-05T04:29:23;9.23;;;6.32;;
42364;SDS011;28498;54.400;18.566;2022-08-05T04:31:52;7.85;;;6.45;;
42364;SDS011;28498;54.400;18.566;2022-08-05T04:34:22;7.90;;;7.10;;
42364;SDS011;28498;54.400;18.566;2022-08-05T04:36:59;7.80;;;6.20;;
42364;SDS011;28498;54.400;18.566;2022-08-05T04:39:28;7.93;;;7.13;;
42364;SDS011;28498;54.400;18.566;2022-08-05T04:41:57;11.20;;;6.50;;
42364;SDS011;28498;54.400;18.566;2022-08-05T04:44:24;12.25;;;6.88;;
42364;SDS011;28498;54.400;18.566;2022-08-05T04:46:58;8.13;;;6.32;;
42364;SDS011;28498;54.400;18.566;2022-08-05T04:49:35;11.98;;;6.55;;
42364;SDS011;28498;54.400;18.566;2022-08-05T04:52:25;9.23;;;6.47;;
42364;SDS011;28498;54.400;18.566;2022-08-05T04:54:53;7.30;;;6.00;;
42364;SDS011;28498;54.400;18.566;2022-08-05T04:57:23;7.88;;;6.10;;
42364;SDS011;28498;54.400;18.566;2022-08-05T04:59:54;8.07;;;6.10;;
42364;SDS011;28498;54.400;18.566;2022-08-05T05:02:23;9.75;;;6.10;;
42364;SDS011;28498;54.400;18.566;2022-08-05T05:05:05;8.50;;;6.10;;
42364;SDS011;28498;54.400;18.566;2022-08-05T05:07:53;12.52;;;6.30;;
42364;SDS011;28498;54.400;18.566;2022-08-05T05:10:27;12.23;;;6.00;;
42364;SDS011;28498;54.400;18.566;2022-08-05T05:12:55;12.80;;;6.00;;
42364;SDS011;28498;54.400;18.566;2022-08-05T05:15:26;8.43;;;5.68;;
42364;SDS011;28498;54.400;18.566;2022-08-05T05:18:13;9.55;;;5.93;;
42364;SDS011;28498;54.400;18.566;2022-08-05T05:20:59;8.65;;;5.00;;
42364;SDS011;28498;54.400;18.566;2022-08-05T05:23:26;7.60;;;5.75;;
42364;SDS011;28498;54.400;18.566;2022-08-05T05:26:13;8.57;;;5.65;;
42364;SDS011;28498;54.400;18.566;2022-08-05T05:28:40;7.00;;;5.30;;
42364;SDS011;28498;54.400;18.566;2022-08-05T05:31:10;8.20;;;5.55;;
42364;SDS011;28498;54.400;18.566;2022-08-05T05:33:36;11.40;;;5.65;;
42364;SDS011;28498;54.400;18.566;2022-08-05T05:36:24;11.85;;;5.53;;
42364;SDS011;28498;54.400;18.566;2022-08-05T05:38:54;8.02;;;4.82;;
42364;SDS011;28498;54.400;18.566;2022-08-05T05:41:22;8.45;;;5.03;;
42364;SDS011;28498;54.400;18.566;2022-08-05T05:43:49;5.85;;;5.10;;
42364;SDS011;28498;54.400;18.566;2022-08-05T05:46:23;11.07;;;5.40;;
42364;SDS011;28498;54.400;18.566;2022-08-05T05:48:50;8.20;;;5.38;;
42364;SDS011;28498;54.400;18.566;2022-08-05T05:51:18;10.35;;;5.63;;
42364;SDS011;28498;54.400;18.566;2022-08-05T05:53:47;13.40;;;5.75;;
42364;SDS011;28498;54.400;18.566;2022-08-05T05:56:27;7.10;;;5.13;;
42364;SDS011;28498;54.400;18.566;2022-08-05T05:59:05;8.68;;;5.20;;
42364;SDS011;28498;54.400;18.566;2022-08-05T06:01:33;8.70;;;5.53;;
42364;SDS011;28498;54.400;18.566;2022-08-05T06:04:04;10.00;;;5.43;;
42364;SDS011;28498;54.400;18.566;2022-08-05T06:09:12;9.32;;;5.30;;
42364;SDS011;28498;54.400;18.566;2022-08-05T06:11:50;6.45;;;4.88;;
42364;SDS011;28498;54.400;18.566;2022-08-05T06:14:28;8.82;;;6.03;;
42364;SDS011;28498;54.400;18.566;2022-08-05T06:17:00;11.57;;;4.88;;
42364;SDS011;28498;54.400;18.566;2022-08-05T06:19:47;12.70;;;4.95;;
42364;SDS011;28498;54.400;18.566;2022-08-05T06:22:25;6.65;;;5.13;;
42364;SDS011;28498;54.400;18.566;2022-08-05T06:24:54;9.57;;;5.32;;
42364;SDS011;28498;54.400;18.566;2022-08-05T06:27:21;8.93;;;5.25;;
42364;SDS011;28498;54.400;18.566;2022-08-05T06:30:08;7.95;;;4.75;;
42364;SDS011;28498;54.400;18.566;2022-08-05T06:32:46;9.20;;;5.25;;
42364;SDS011;28498;54.400;18.566;2022-08-05T06:35:16;9.43;;;5.32;;
42364;SDS011;28498;54.400;18.566;2022-08-05T06:38:03;11.10;;;4.68;;
42364;SDS011;28498;54.400;18.566;2022-08-05T06:40:36;10.70;;;5.47;;
42364;SDS011;28498;54.400;18.566;2022-08-05T06:43:09;11.73;;;5.20;;
42364;SDS011;28498;54.400;18.566;2022-08-05T06:45:56;9.20;;;5.15;;
42364;SDS011;28498;54.400;18.566;2022-08-05T06:48:32;9.65;;;4.78;;
42364;SDS011;28498;54.400;18.566;2022-08-05T06:51:20;10.88;;;4.70;;
42364;SDS011;28498;54.400;18.566;2022-08-05T06:53:55;8.98;;;5.20;;
42364;SDS011;28498;54.400;18.566;2022-08-05T06:56:24;10.45;;;4.78;;
42364;SDS011;28498;54.400;18.566;2022-08-05T06:58:52;5.85;;;4.70;;
42364;SDS011;28498;54.400;18.566;2022-08-05T07:01:20;7.10;;;4.72;;
42364;SDS011;28498;54.400;18.566;2022-08-05T07:03:48;11.13;;;5.10;;
42364;SDS011;28498;54.400;18.566;2022-08-05T07:06:15;10.90;;;5.15;;
42364;SDS011;28498;54.400;18.566;2022-08-05T07:08:45;6.32;;;4.93;;
42364;SDS011;28498;54.400;18.566;2022-08-05T07:15:01;11.82;;;4.65;;
42364;SDS011;28498;54.400;18.566;2022-08-05T07:18:06;7.38;;;3.90;;
42364;SDS011;28498;54.400;18.566;2022-08-05T07:20:36;8.23;;;4.22;;
42364;SDS011;28498;54.400;18.566;2022-08-05T07:23:04;9.05;;;4.82;;
42364;SDS011;28498;54.400;18.566;2022-08-05T07:25:31;10.05;;;4.68;;
42364;SDS011;28498;54.400;18.566;2022-08-05T07:28:18;7.40;;;4.32;;
42364;SDS011;28498;54.400;18.566;2022-08-05T07:30:45;9.13;;;4.88;;
42364;SDS011;28498;54.400;18.566;2022-08-05T07:37:08;12.00;;;4.47;;
42364;SDS011;28498;54.400;18.566;2022-08-05T07:39:37;9.55;;;4.60;;
42364;SDS011;28498;54.400;18.566;2022-08-05T07:46:05;6.93;;;3.72;;
42364;SDS011;28498;54.400;18.566;2022-08-05T07:48:49;8.93;;;3.75;;
42364;SDS011;28498;54.400;18.566;2022-08-05T07:51:30;11.68;;;3.70;;
42364;SDS011;28498;54.400;18.566;2022-08-05T07:54:06;6.57;;;3.67;;
42364;SDS011;28498;54.400;18.566;2022-08-05T07:56:35;10.07;;;3.70;;
42364;SDS011;28498;54.400;18.566;2022-08-05T07:59:23;5.80;;;3.72;;
42364;SDS011;28498;54.400;18.566;2022-08-05T08:02:05;6.18;;;4.05;;
42364;SDS011;28498;54.400;18.566;2022-08-05T08:04:42;4.63;;;3.15;;
42364;SDS011;28498;54.400;18.566;2022-08-05T08:07:14;3.90;;;3.25;;
42364;SDS011;28498;54.400;18.566;2022-08-05T08:09:43;5.88;;;3.42;;
42364;SDS011;28498;54.400;18.566;2022-08-05T08:12:10;8.40;;;3.53;;
42364;SDS011;28498;54.400;18.566;2022-08-05T08:15:01;6.32;;;3.45;;
42364;SDS011;28498;54.400;18.566;2022-08-05T08:17:30;5.13;;;3.08;;
42364;SDS011;28498;54.400;18.566;2022-08-05T08:20:00;8.18;;;3.15;;
42364;SDS011;28498;54.400;18.566;2022-08-05T08:22:52;5.88;;;3.33;;
42364;SDS011;28498;54.400;18.566;2022-08-05T08:25:21;5.43;;;3.60;;
42364;SDS011;28498;54.400;18.566;2022-08-05T08:28:09;7.03;;;3.35;;
42364;SDS011;28498;54.400;18.566;2022-08-05T08:30:44;5.20;;;3.25;;
42364;SDS011;28498;54.400;18.566;2022-08-05T08:33:14;6.78;;;3.53;;
42364;SDS011;28498;54.400;18.566;2022-08-05T08:35:42;5.53;;;2.78;;
42364;SDS011;28498;54.400;18.566;2022-08-05T08:38:28;3.85;;;2.95;;
42364;SDS011;28498;54.400;18.566;2022-08-05T08:41:05;9.80;;;3.72;;
42364;SDS011;28498;54.400;18.566;2022-08-05T08:43:39;11.98;;;3.53;;
42364;SDS011;28498;54.400;18.566;2022-08-05T08:46:27;24.63;;;6.10;;
42364;SDS011;28498;54.400;18.566;2022-08-05T08:48:57;16.10;;;3.90;;
42364;SDS011;28498;54.400;18.566;2022-08-05T08:51:48;9.68;;;3.55;;
42364;SDS011;28498;54.400;18.566;2022-08-05T08:54:39;6.65;;;2.78;;
42364;SDS011;28498;54.400;18.566;2022-08-05T08:57:07;9.50;;;3.35;;
42364;SDS011;28498;54.400;18.566;2022-08-05T08:59:37;4.72;;;3.03;;
42364;SDS011;28498;54.400;18.566;2022-08-05T09:02:12;4.72;;;3.00;;
42364;SDS011;28498;54.400;18.566;2022-08-05T09:04:42;13.75;;;3.17;;
42364;SDS011;28498;54.400;18.566;2022-08-05T09:07:30;8.45;;;3.83;;
42364;SDS011;28498;54.400;18.566;2022-08-05T09:10:18;7.13;;;2.88;;
42364;SDS011;28498;54.400;18.566;2022-08-05T09:12:52;7.40;;;3.15;;
42364;SDS011;28498;54.400;18.566;2022-08-05T09:15:21;7.45;;;3.00;;
42364;SDS011;28498;54.400;18.566;2022-08-05T09:17:50;8.02;;;3.15;;
42364;SDS011;28498;54.400;18.566;2022-08-05T09:20:18;5.95;;;2.90;;
42364;SDS011;28498;54.400;18.566;2022-08-05T09:25:34;5.15;;;3.05;;
42364;SDS011;28498;54.400;18.566;2022-08-05T09:28:23;7.47;;;3.15;;
42364;SDS011;28498;54.400;18.566;2022-08-05T09:31:02;8.38;;;3.03;;
42364;SDS011;28498;54.400;18.566;2022-08-05T09:33:58;7.97;;;3.05;;
42364;SDS011;28498;54.400;18.566;2022-08-05T09:39:24;5.43;;;2.83;;
42364;SDS011;28498;54.400;18.566;2022-08-05T09:42:11;5.93;;;2.67;;
42364;SDS011;28498;54.400;18.566;2022-08-05T09:44:49;4.93;;;2.60;;
42364;SDS011;28498;54.400;18.566;2022-08-05T09:51:09;7.22;;;2.60;;
42364;SDS011;28498;54.400;18.566;2022-08-05T09:53:48;7.78;;;2.60;;
42364;SDS011;28498;54.400;18.566;2022-08-05T09:58:58;5.35;;;2.63;;
42364;SDS011;28498;54.400;18.566;2022-08-05T10:01:29;7.78;;;3.10;;
42364;SDS011;28498;54.400;18.566;2022-08-05T10:04:05;7.18;;;3.50;;
42364;SDS011;28498;54.400;18.566;2022-08-05T10:06:36;7.43;;;2.85;;
42364;SDS011;28498;54.400;18.566;2022-08-05T10:09:23;6.95;;;3.05;;
42364;SDS011;28498;54.400;18.566;2022-08-05T10:11:55;11.15;;;3.03;;
42364;SDS011;28498;54.400;18.566;2022-08-05T10:15:03;4.38;;;2.80;;
42364;SDS011;28498;54.400;18.566;2022-08-05T10:18:01;8.43;;;3.25;;
42364;SDS011;28498;54.400;18.566;2022-08-05T10:20:33;7.25;;;2.67;;
42364;SDS011;28498;54.400;18.566;2022-08-05T10:23:02;6.78;;;2.58;;
42364;SDS011;28498;54.400;18.566;2022-08-05T10:29:28;4.90;;;2.60;;
42364;SDS011;28498;54.400;18.566;2022-08-05T10:32:19;5.05;;;2.50;;
42364;SDS011;28498;54.400;18.566;2022-08-05T10:35:06;7.63;;;2.70;;
42364;SDS011;28498;54.400;18.566;2022-08-05T10:37:34;5.43;;;2.58;;
42364;SDS011;28498;54.400;18.566;2022-08-05T10:43:16;6.10;;;2.67;;
42364;SDS011;28498;54.400;18.566;2022-08-05T10:46:00;9.95;;;2.42;;
42364;SDS011;28498;54.400;18.566;2022-08-05T10:48:38;5.15;;;2.28;;
42364;SDS011;28498;54.400;18.566;2022-08-05T10:51:24;5.05;;;2.38;;
42364;SDS011;28498;54.400;18.566;2022-08-05T10:53:58;3.90;;;2.47;;
42364;SDS011;28498;54.400;18.566;2022-08-05T10:56:35;4.22;;;2.22;;
42364;SDS011;28498;54.400;18.566;2022-08-05T10:59:18;6.43;;;2.22;;
42364;SDS011;28498;54.400;18.566;2022-08-05T11:02:12;6.70;;;2.42;;
42364;SDS011;28498;54.400;18.566;2022-08-05T11:05:01;4.80;;;2.58;;
42364;SDS011;28498;54.400;18.566;2022-08-05T11:07:45;4.13;;;2.20;;
42364;SDS011;28498;54.400;18.566;2022-08-05T11:10:48;6.75;;;2.20;;
42364;SDS011;28498;54.400;18.566;2022-08-05T11:13:39;7.45;;;2.90;;
42364;SDS011;28498;54.400;18.566;2022-08-05T11:16:23;5.38;;;2.35;;
42364;SDS011;28498;54.400;18.566;2022-08-05T11:19:25;5.20;;;2.50;;
42364;SDS011;28498;54.400;18.566;2022-08-05T11:22:56;7.57;;;2.67;;
42364;SDS011;28498;54.400;18.566;2022-08-05T11:33:30;3.88;;;2.33;;
42364;SDS011;28498;54.400;18.566;2022-08-05T11:36:20;6.65;;;2.35;;
42364;SDS011;28498;54.400;18.566;2022-08-05T11:39:08;4.80;;;2.28;;
42364;SDS011;28498;54.400;18.566;2022-08-05T11:41:35;6.00;;;2.83;;
42364;SDS011;28498;54.400;18.566;2022-08-05T11:44:23;8.07;;;2.70;;
42364;SDS011;28498;54.400;18.566;2022-08-05T11:47:19;4.68;;;2.72;;
42364;SDS011;28498;54.400;18.566;2022-08-05T11:50:08;4.28;;;2.30;;
42364;SDS011;28498;54.400;18.566;2022-08-05T11:52:39;4.10;;;2.47;;
42364;SDS011;28498;54.400;18.566;2022-08-05T11:55:11;5.05;;;3.00;;
42364;SDS011;28498;54.400;18.566;2022-08-05T11:57:38;10.45;;;2.30;;
42364;SDS011;28498;54.400;18.566;2022-08-05T12:00:31;5.93;;;3.15;;
42364;SDS011;28498;54.400;18.566;2022-08-05T12:03:19;5.13;;;2.20;;
42364;SDS011;28498;54.400;18.566;2022-08-05T12:06:01;7.63;;;2.88;;
42364;SDS011;28498;54.400;18.566;2022-08-05T12:08:45;5.88;;;2.70;;
42364;SDS011;28498;54.400;18.566;2022-08-05T12:11:20;3.00;;;2.30;;
42364;SDS011;28498;54.400;18.566;2022-08-05T12:16:33;6.93;;;2.58;;
42364;SDS011;28498;54.400;18.566;2022-08-05T12:19:04;6.82;;;2.67;;
42364;SDS011;28498;54.400;18.566;2022-08-05T12:21:34;5.40;;;2.90;;
42364;SDS011;28498;54.400;18.566;2022-08-05T12:24:08;5.93;;;2.80;;
42364;SDS011;28498;54.400;18.566;2022-08-05T12:29:10;5.93;;;2.60;;
42364;SDS011;28498;54.400;18.566;2022-08-05T12:31:44;7.15;;;2.22;;
42364;SDS011;28498;54.400;18.566;2022-08-05T12:34:20;5.07;;;2.33;;
42364;SDS011;28498;54.400;18.566;2022-08-05T12:36:51;4.97;;;2.30;;
42364;SDS011;28498;54.400;18.566;2022-08-05T12:39:19;3.63;;;2.30;;
42364;SDS011;28498;54.400;18.566;2022-08-05T12:41:48;4.97;;;2.30;;
42364;SDS011;28498;54.400;18.566;2022-08-05T12:44:23;7.78;;;2.80;;
42364;SDS011;28498;54.400;18.566;2022-08-05T12:46:59;7.22;;;2.58;;
42364;SDS011;28498;54.400;18.566;2022-08-05T12:49:37;6.78;;;2.38;;
42364;SDS011;28498;54.400;18.566;2022-08-05T12:52:31;4.65;;;2.10;;
42364;SDS011;28498;54.400;18.566;2022-08-05T12:57:48;2.88;;;2.05;;
42364;SDS011;28498;54.400;18.566;2022-08-05T13:00:43;7.07;;;2.30;;
42364;SDS011;28498;54.400;18.566;2022-08-05T13:03:33;5.43;;;2.60;;
42364;SDS011;28498;54.400;18.566;2022-08-05T13:06:11;4.82;;;2.28;;
42364;SDS011;28498;54.400;18.566;2022-08-05T13:08:41;6.32;;;2.83;;
42364;SDS011;28498;54.400;18.566;2022-08-05T13:11:18;5.05;;;2.50;;
42364;SDS011;28498;54.400;18.566;2022-08-05T13:14:09;2.97;;;2.10;;
42364;SDS011;28498;54.400;18.566;2022-08-05T13:16:44;6.07;;;2.50;;
42364;SDS011;28498;54.400;18.566;2022-08-05T13:19:14;4.63;;;2.33;;
42364;SDS011;28498;54.400;18.566;2022-08-05T13:21:44;5.22;;;2.88;;
42364;SDS011;28498;54.400;18.566;2022-08-05T13:24:18;5.50;;;2.58;;
42364;SDS011;28498;54.400;18.566;2022-08-05T13:27:06;6.80;;;2.83;;
42364;SDS011;28498;54.400;18.566;2022-08-05T13:29:42;6.57;;;2.65;;
42364;SDS011;28498;54.400;18.566;2022-08-05T13:32:29;6.57;;;2.65;;
42364;SDS011;28498;54.400;18.566;2022-08-05T13:35:04;15.98;;;4.93;;
42364;SDS011;28498;54.400;18.566;2022-08-05T13:37:32;4.90;;;2.50;;
42364;SDS011;28498;54.400;18.566;2022-08-05T13:40:00;4.82;;;2.38;;
42364;SDS011;28498;54.400;18.566;2022-08-05T13:42:45;5.50;;;2.40;;
42364;SDS011;28498;54.400;18.566;2022-08-05T13:45:12;4.53;;;2.30;;
42364;SDS011;28498;54.400;18.566;2022-08-05T13:47:46;7.18;;;3.33;;
42364;SDS011;28498;54.400;18.566;2022-08-05T13:50:33;6.53;;;2.90;;
42364;SDS011;28498;54.400;18.566;2022-08-05T13:53:00;7.55;;;2.40;;
42364;SDS011;28498;54.400;18.566;2022-08-05T13:55:34;10.40;;;2.35;;
42364;SDS011;28498;54.400;18.566;2022-08-05T13:58:13;7.05;;;2.97;;
42364;SDS011;28498;54.400;18.566;2022-08-05T14:00:55;9.10;;;2.85;;
42364;SDS011;28498;54.400;18.566;2022-08-05T14:03:22;6.18;;;2.65;;
42364;SDS011;28498;54.400;18.566;2022-08-05T14:05:50;7.72;;;2.53;;
42364;SDS011;28498;54.400;18.566;2022-08-05T14:08:37;8.68;;;2.47;;
42364;SDS011;28498;54.400;18.566;2022-08-05T14:14:52;6.95;;;2.33;;
42364;SDS011;28498;54.400;18.566;2022-08-05T14:17:19;4.00;;;1.92;;
42364;SDS011;28498;54.400;18.566;2022-08-05T14:19:51;4.90;;;2.10;;
42364;SDS011;28498;54.400;18.566;2022-08-05T14:22:26;3.88;;;2.05;;
42364;SDS011;28498;54.400;18.566;2022-08-05T14:24:59;8.80;;;2.10;;
42364;SDS011;28498;54.400;18.566;2022-08-05T14:27:31;6.18;;;2.00;;
42364;SDS011;28498;54.400;18.566;2022-08-05T14:29:58;3.83;;;1.98;;
42364;SDS011;28498;54.400;18.566;2022-08-05T14:32:26;4.93;;;2.00;;
42364;SDS011;28498;54.400;18.566;2022-08-05T14:34:53;7.18;;;1.88;;
42364;SDS011;28498;54.400;18.566;2022-08-05T14:37:23;3.88;;;1.85;;
42364;SDS011;28498;54.400;18.566;2022-08-05T14:40:10;5.60;;;2.00;;
42364;SDS011;28498;54.400;18.566;2022-08-05T14:42:41;3.80;;;1.97;;
42364;SDS011;28498;54.400;18.566;2022-08-05T14:45:08;3.92;;;2.03;;
42364;SDS011;28498;54.400;18.566;2022-08-05T14:47:35;4.47;;;1.90;;
42364;SDS011;28498;54.400;18.566;2022-08-05T14:50:22;6.43;;;2.10;;
42364;SDS011;28498;54.400;18.566;2022-08-05T14:52:50;7.03;;;2.40;;
42364;SDS011;28498;54.400;18.566;2022-08-05T14:55:24;3.22;;;1.92;;
42364;SDS011;28498;54.400;18.566;2022-08-05T14:58:05;5.78;;;2.13;;
42364;SDS011;28498;54.400;18.566;2022-08-05T15:00:36;6.15;;;2.03;;
42364;SDS011;28498;54.400;18.566;2022-08-05T15:03:23;6.05;;;1.95;;
42364;SDS011;28498;54.400;18.566;2022-08-05T15:05:50;3.83;;;2.25;;
42364;SDS011;28498;54.400;18.566;2022-08-05T15:08:37;6.72;;;2.50;;
42364;SDS011;28498;54.400;18.566;2022-08-05T15:11:24;5.50;;;2.13;;
42364;SDS011;28498;54.400;18.566;2022-08-05T15:14:10;5.68;;;2.40;;
42364;SDS011;28498;54.400;18.566;2022-08-05T15:16:57;5.70;;;2.70;;
42364;SDS011;28498;54.400;18.566;2022-08-05T15:19:24;7.00;;;2.40;;
42364;SDS011;28498;54.400;18.566;2022-08-05T15:21:51;3.80;;;1.92;;
42364;SDS011;28498;54.400;18.566;2022-08-05T15:24:25;4.78;;;2.35;;
42364;SDS011;28498;54.400;18.566;2022-08-05T15:26:52;3.85;;;1.90;;
42364;SDS011;28498;54.400;18.566;2022-08-05T15:29:22;4.03;;;2.15;;
42364;SDS011;28498;54.400;18.566;2022-08-05T15:31:55;5.80;;;2.30;;
42364;SDS011;28498;54.400;18.566;2022-08-05T15:34:28;5.93;;;2.38;;
42364;SDS011;28498;54.400;18.566;2022-08-05T15:36:59;4.43;;;2.15;;
42364;SDS011;28498;54.400;18.566;2022-08-05T15:39:39;7.55;;;2.20;;
42364;SDS011;28498;54.400;18.566;2022-08-05T15:42:26;4.22;;;2.20;;
42364;SDS011;28498;54.400;18.566;2022-08-05T15:45:13;4.47;;;2.20;;
42364;SDS011;28498;54.400;18.566;2022-08-05T15:47:41;3.88;;;2.58;;
42364;SDS011;28498;54.400;18.566;2022-08-05T15:50:10;9.02;;;2.60;;
42364;SDS011;28498;54.400;18.566;2022-08-05T15:52:41;16.13;;;2.70;;
42364;SDS011;28498;54.400;18.566;2022-08-05T15:55:20;4.72;;;2.03;;
42364;SDS011;28498;54.400;18.566;2022-08-05T15:57:50;5.72;;;2.28;;
42364;SDS011;28498;54.400;18.566;2022-08-05T16:00:17;7.63;;;2.33;;
42364;SDS011;28498;54.400;18.566;2022-08-05T16:02:58;4.32;;;2.20;;
42364;SDS011;28498;54.400;18.566;2022-08-05T16:05:25;6.05;;;2.30;;
42364;SDS011;28498;54.400;18.566;2022-08-05T16:07:53;6.97;;;2.30;;
42364;SDS011;28498;54.400;18.566;2022-08-05T16:10:22;5.07;;;2.45;;
42364;SDS011;28498;54.400;18.566;2022-08-05T16:12:51;5.05;;;2.47;;
42364;SDS011;28498;54.400;18.566;2022-08-05T16:15:21;4.82;;;2.35;;
42364;SDS011;28498;54.400;18.566;2022-08-05T16:17:48;7.53;;;2.42;;
42364;SDS011;28498;54.400;18.566;2022-08-05T16:20:23;5.35;;;2.40;;
42364;SDS011;28498;54.400;18.566;2022-08-05T16:22:50;6.97;;;2.42;;
42364;SDS011;28498;54.400;18.566;2022-08-05T16:25:17;6.38;;;2.45;;
42364;SDS011;28498;54.400;18.566;2022-08-05T16:27:44;7.20;;;4.22;;
42364;SDS011;28498;54.400;18.566;2022-08-05T16:30:30;7.85;;;4.95;;
42364;SDS011;28498;54.400;18.566;2022-08-05T16:32:58;8.23;;;5.60;;